PWSweather.com
Personal Weather Stations
Station Observations
KMOHERMA2
Stony Hill, Hermann, MO 65041

Stony HillHermann, MO 65041

Lat: 38.527, Lon: -91.414

Elevation: 896

Station Type: Davis Vantage Pro 2

High Low Average
Temperature 31.4°F-0.3°C 24.2°F-4.3°C 28.5°F-1.9°C
Dew Point 28.4°F-2.0°C 18.1°F-7.7°C 22.2°F-5.4°C
Winds 11.0 mph 17.7 kmh Calm Calm 1.0 mph SE1.6 kmh SE
Wind Gusts 14.0 mph22.5 kmh -- 1.0 mph1.6 kmh
Humidity 90% 66% 77%
Pressure 30.30 in1026.1 mb 30.16 in1021.3 mb -
Precipitation 0.00 in0.0 mm - -
Hour Temp Dew Point Humidity Winds Wind Gusts Pressure Precip Precip Rate Daily Precip Total
12:00 AM 31.3°F-0.4°C 28.4°F-2.0°C 89% Calm Calm -- 30.17 in1021.7 mb 0.00 in0.0 mm 0.00 in0.0 mm 0.01 in0.3 mm
12:05 AM 31.2°F-0.4°C 28.4°F-2.0°C 89% Calm Calm -- 30.17 in1021.7 mb 0.00 in0.0 mm 0.00 in0.0 mm 0.01 in0.3 mm
12:10 AM 31.2°F-0.4°C 28.4°F-2.0°C 89% Calm Calm -- 30.17 in1021.7 mb 0.00 in0.0 mm 0.00 in0.0 mm 0.01 in0.3 mm
12:15 AM 31.2°F-0.4°C 28.4°F-2.0°C 89% Calm Calm -- 30.17 in1021.7 mb 0.00 in0.0 mm 0.00 in0.0 mm 0.01 in0.3 mm
12:20 AM 31.2°F-0.4°C 28.4°F-2.0°C 89% Calm Calm -- 30.17 in1021.7 mb 0.00 in0.0 mm 0.00 in0.0 mm 0.01 in0.3 mm
12:25 AM 31.2°F-0.4°C 28.4°F-2.0°C 89% Calm Calm -- 30.17 in1021.7 mb 0.00 in0.0 mm 0.00 in0.0 mm 0.01 in0.3 mm
12:30 AM 31.2°F-0.4°C 28.4°F-2.0°C 89% Calm Calm -- 30.17 in1021.7 mb 0.00 in0.0 mm 0.00 in0.0 mm 0.01 in0.3 mm
12:35 AM 31.2°F-0.4°C 28.4°F-2.0°C 89% Calm Calm -- 30.17 in1021.7 mb 0.00 in0.0 mm 0.00 in0.0 mm 0.01 in0.3 mm
12:40 AM 31.2°F-0.4°C 28.4°F-2.0°C 89% Calm Calm -- 30.17 in1021.7 mb 0.00 in0.0 mm 0.00 in0.0 mm 0.01 in0.3 mm
12:45 AM 31.2°F-0.4°C 28.4°F-2.0°C 89% Calm Calm -- 30.17 in1021.7 mb 0.00 in0.0 mm 0.00 in0.0 mm 0.01 in0.3 mm
12:50 AM 31.2°F-0.4°C 28.4°F-2.0°C 89% Calm Calm -- 30.17 in1021.7 mb 0.00 in0.0 mm 0.00 in0.0 mm 0.01 in0.3 mm
12:55 AM 31.2°F-0.4°C 28.4°F-2.0°C 89% Calm Calm -- 30.16 in1021.3 mb 0.00 in0.0 mm 0.00 in0.0 mm 0.01 in0.3 mm
01:00 AM 31.1°F-0.5°C 28.2°F-2.1°C 89% Calm Calm -- 30.17 in1021.7 mb 0.00 in0.0 mm 0.00 in0.0 mm 0.00 in0.0 mm
01:05 AM 31.2°F-0.4°C 28.4°F-2.0°C 89% Calm Calm -- 30.17 in1021.7 mb 0.00 in0.0 mm 0.00 in0.0 mm 0.00 in0.0 mm
01:10 AM 31.1°F-0.5°C 28.2°F-2.1°C 89% Calm Calm -- 30.16 in1021.3 mb 0.00 in0.0 mm 0.00 in0.0 mm 0.00 in0.0 mm
01:15 AM 31.1°F-0.5°C 28.2°F-2.1°C 89% Calm Calm -- 30.16 in1021.3 mb 0.00 in0.0 mm 0.00 in0.0 mm 0.00 in0.0 mm
01:20 AM 31.1°F-0.5°C 28.0°F-2.2°C 88% Calm Calm -- 30.16 in1021.3 mb 0.00 in0.0 mm 0.00 in0.0 mm 0.00 in0.0 mm
01:25 AM 31.1°F-0.5°C 28.0°F-2.2°C 88% Calm Calm -- 30.17 in1021.7 mb 0.00 in0.0 mm 0.00 in0.0 mm 0.00 in0.0 mm
01:30 AM 31.1°F-0.5°C 28.0°F-2.2°C 88% Calm Calm -- 30.17 in1021.7 mb 0.00 in0.0 mm 0.00 in0.0 mm 0.00 in0.0 mm
01:35 AM 31.0°F-0.6°C 27.9°F-2.3°C 88% Calm Calm 1.0 mph1.6 kmh 30.17 in1021.7 mb 0.00 in0.0 mm 0.00 in0.0 mm 0.00 in0.0 mm
01:40 AM 31.0°F-0.6°C 27.9°F-2.3°C 88% Calm Calm -- 30.17 in1021.7 mb 0.00 in0.0 mm 0.00 in0.0 mm 0.00 in0.0 mm
01:45 AM 31.0°F-0.6°C 27.9°F-2.3°C 88% Calm Calm -- 30.17 in1021.7 mb 0.00 in0.0 mm 0.00 in0.0 mm 0.00 in0.0 mm
01:50 AM 31.0°F-0.6°C 27.9°F-2.3°C 88% Calm Calm -- 30.17 in1021.7 mb 0.00 in0.0 mm 0.00 in0.0 mm 0.00 in0.0 mm
01:55 AM 31.0°F-0.6°C 27.9°F-2.3°C 88% Calm Calm -- 30.17 in1021.7 mb 0.00 in0.0 mm 0.00 in0.0 mm 0.00 in0.0 mm
02:00 AM 30.9°F-0.6°C 27.9°F-2.3°C 88% Calm Calm -- 30.17 in1021.7 mb 0.00 in0.0 mm 0.00 in0.0 mm 0.00 in0.0 mm
02:05 AM 30.9°F-0.6°C 27.9°F-2.3°C 88% Calm Calm -- 30.17 in1021.7 mb 0.00 in0.0 mm 0.00 in0.0 mm 0.00 in0.0 mm
02:10 AM 30.9°F-0.6°C 27.9°F-2.3°C 88% Calm Calm -- 30.17 in1021.7 mb 0.00 in0.0 mm 0.00 in0.0 mm 0.00 in0.0 mm
02:15 AM 30.8°F-0.7°C 27.7°F-2.4°C 88% Calm Calm -- 30.17 in1021.7 mb 0.00 in0.0 mm 0.00 in0.0 mm 0.00 in0.0 mm
02:20 AM 30.7°F-0.7°C 27.9°F-2.3°C 89% Calm Calm -- 30.17 in1021.7 mb 0.00 in0.0 mm 0.00 in0.0 mm 0.00 in0.0 mm
02:25 AM 30.6°F-0.8°C 27.7°F-2.4°C 89% Calm Calm -- 30.17 in1021.7 mb 0.00 in0.0 mm 0.00 in0.0 mm 0.00 in0.0 mm
02:30 AM 30.5°F-0.8°C 27.7°F-2.4°C 89% Calm Calm -- 30.17 in1021.7 mb 0.00 in0.0 mm 0.00 in0.0 mm 0.00 in0.0 mm
02:35 AM 30.4°F-0.9°C 27.5°F-2.5°C 89% Calm Calm -- 30.17 in1021.7 mb 0.00 in0.0 mm 0.00 in0.0 mm 0.00 in0.0 mm
02:40 AM 30.4°F-0.9°C 27.5°F-2.5°C 89% Calm Calm -- 30.17 in1021.7 mb 0.00 in0.0 mm 0.00 in0.0 mm 0.00 in0.0 mm
02:45 AM 30.3°F-0.9°C 27.9°F-2.3°C 90% Calm Calm -- 30.17 in1021.7 mb 0.00 in0.0 mm 0.00 in0.0 mm 0.00 in0.0 mm
02:50 AM 30.3°F-0.9°C 27.9°F-2.3°C 90% Calm Calm -- 30.17 in1021.7 mb 0.00 in0.0 mm 0.00 in0.0 mm 0.00 in0.0 mm
02:55 AM 30.2°F-1.0°C 27.7°F-2.4°C 90% Calm Calm -- 30.18 in1022.0 mb 0.00 in0.0 mm 0.00 in0.0 mm 0.00 in0.0 mm
03:00 AM 30.1°F-1.1°C 27.5°F-2.5°C 90% Calm Calm -- 30.17 in1021.7 mb 0.00 in0.0 mm 0.00 in0.0 mm 0.00 in0.0 mm
03:05 AM 30.0°F-1.1°C 27.5°F-2.5°C 90% Calm Calm -- 30.17 in1021.7 mb 0.00 in0.0 mm 0.00 in0.0 mm 0.00 in0.0 mm
03:10 AM 30.0°F-1.1°C 27.5°F-2.5°C 90% Calm Calm -- 30.18 in1022.0 mb 0.00 in0.0 mm 0.00 in0.0 mm 0.00 in0.0 mm
03:15 AM 29.9°F-1.2°C 27.3°F-2.6°C 90% Calm Calm -- 30.18 in1022.0 mb 0.00 in0.0 mm 0.00 in0.0 mm 0.00 in0.0 mm
03:20 AM 29.9°F-1.2°C 27.3°F-2.6°C 90% Calm Calm -- 30.19 in1022.4 mb 0.00 in0.0 mm 0.00 in0.0 mm 0.00 in0.0 mm
03:25 AM 29.9°F-1.2°C 27.0°F-2.8°C 89% Calm Calm -- 30.18 in1022.0 mb 0.00 in0.0 mm 0.00 in0.0 mm 0.00 in0.0 mm
03:30 AM 29.8°F-1.2°C 27.0°F-2.8°C 89% Calm Calm -- 30.18 in1022.0 mb 0.00 in0.0 mm 0.00 in0.0 mm 0.00 in0.0 mm
03:35 AM 29.8°F-1.2°C 27.0°F-2.8°C 89% Calm Calm -- 30.18 in1022.0 mb 0.00 in0.0 mm 0.00 in0.0 mm 0.00 in0.0 mm
03:40 AM 29.8°F-1.2°C 27.0°F-2.8°C 89% Calm Calm -- 30.17 in1021.7 mb 0.00 in0.0 mm 0.00 in0.0 mm 0.00 in0.0 mm
03:45 AM 29.7°F-1.3°C 26.8°F-2.9°C 89% Calm Calm -- 30.18 in1022.0 mb 0.00 in0.0 mm 0.00 in0.0 mm 0.00 in0.0 mm
03:50 AM 29.7°F-1.3°C 26.8°F-2.9°C 89% Calm Calm -- 30.18 in1022.0 mb 0.00 in0.0 mm 0.00 in0.0 mm 0.00 in0.0 mm
03:55 AM 29.7°F-1.3°C 26.8°F-2.9°C 89% Calm Calm -- 30.18 in1022.0 mb 0.00 in0.0 mm 0.00 in0.0 mm 0.00 in0.0 mm
04:00 AM 29.6°F-1.3°C 26.6°F-3.0°C 88% Calm Calm -- 30.18 in1022.0 mb 0.00 in0.0 mm 0.00 in0.0 mm 0.00 in0.0 mm
04:05 AM 29.6°F-1.3°C 26.6°F-3.0°C 88% Calm Calm -- 30.19 in1022.4 mb 0.00 in0.0 mm 0.00 in0.0 mm 0.00 in0.0 mm
04:10 AM 29.6°F-1.3°C 26.6°F-3.0°C 88% Calm Calm -- 30.19 in1022.4 mb 0.00 in0.0 mm 0.00 in0.0 mm 0.00 in0.0 mm
04:15 AM 29.5°F-1.4°C 26.4°F-3.1°C 88% 3.0 mph WNW4.8 kmh WNW -- 30.19 in1022.4 mb 0.00 in0.0 mm 0.00 in0.0 mm 0.00 in0.0 mm
04:20 AM 29.5°F-1.4°C 26.4°F-3.1°C 88% 2.0 mph WNW3.2 kmh WNW -- 30.19 in1022.4 mb 0.00 in0.0 mm 0.00 in0.0 mm 0.00 in0.0 mm
04:25 AM 29.4°F-1.4°C 26.1°F-3.3°C 87% 5.0 mph WNW8.0 kmh WNW -- 30.19 in1022.4 mb 0.00 in0.0 mm 0.00 in0.0 mm 0.00 in0.0 mm
04:30 AM 29.4°F-1.4°C 26.1°F-3.3°C 87% Calm Calm 5.0 mph8.0 kmh 30.19 in1022.4 mb 0.00 in0.0 mm 0.00 in0.0 mm 0.00 in0.0 mm
04:35 AM 29.3°F-1.5°C 25.9°F-3.4°C 87% Calm Calm -- 30.19 in1022.4 mb 0.00 in0.0 mm 0.00 in0.0 mm 0.00 in0.0 mm
04:40 AM 29.3°F-1.5°C 25.7°F-3.5°C 86% Calm Calm -- 30.18 in1022.0 mb 0.00 in0.0 mm 0.00 in0.0 mm 0.00 in0.0 mm
04:45 AM 29.3°F-1.5°C 25.7°F-3.5°C 86% Calm Calm -- 30.19 in1022.4 mb 0.00 in0.0 mm 0.00 in0.0 mm 0.00 in0.0 mm
04:50 AM 29.2°F-1.6°C 25.5°F-3.6°C 86% Calm Calm -- 30.19 in1022.4 mb 0.00 in0.0 mm 0.00 in0.0 mm 0.00 in0.0 mm
04:55 AM 29.2°F-1.6°C 25.5°F-3.6°C 86% Calm Calm -- 30.19 in1022.4 mb 0.00 in0.0 mm 0.00 in0.0 mm 0.00 in0.0 mm
05:00 AM 29.1°F-1.6°C 25.5°F-3.6°C 86% Calm Calm -- 30.19 in1022.4 mb 0.00 in0.0 mm 0.00 in0.0 mm 0.00 in0.0 mm
05:05 AM 29.1°F-1.6°C 25.5°F-3.6°C 86% Calm Calm -- 30.19 in1022.4 mb 0.00 in0.0 mm 0.00 in0.0 mm 0.00 in0.0 mm
05:10 AM 29.1°F-1.6°C 25.5°F-3.6°C 86% Calm Calm -- 30.20 in1022.7 mb 0.00 in0.0 mm 0.00 in0.0 mm 0.00 in0.0 mm
05:15 AM 29.1°F-1.6°C 25.2°F-3.8°C 85% Calm Calm -- 30.21 in1023.0 mb 0.00 in0.0 mm 0.00 in0.0 mm 0.00 in0.0 mm
05:20 AM 29.1°F-1.6°C 25.2°F-3.8°C 85% Calm Calm -- 30.21 in1023.0 mb 0.00 in0.0 mm 0.00 in0.0 mm 0.00 in0.0 mm
05:25 AM 29.1°F-1.6°C 25.2°F-3.8°C 85% Calm Calm -- 30.21 in1023.0 mb 0.00 in0.0 mm 0.00 in0.0 mm 0.00 in0.0 mm
05:30 AM 29.1°F-1.6°C 25.2°F-3.8°C 85% Calm Calm -- 30.21 in1023.0 mb 0.00 in0.0 mm 0.00 in0.0 mm 0.00 in0.0 mm
05:35 AM 29.1°F-1.6°C 25.5°F-3.6°C 86% Calm Calm -- 30.20 in1022.7 mb 0.00 in0.0 mm 0.00 in0.0 mm 0.00 in0.0 mm
05:40 AM 29.1°F-1.6°C 25.5°F-3.6°C 86% Calm Calm -- 30.20 in1022.7 mb 0.00 in0.0 mm 0.00 in0.0 mm 0.00 in0.0 mm
05:45 AM 29.1°F-1.6°C 25.5°F-3.6°C 86% Calm Calm -- 30.20 in1022.7 mb 0.00 in0.0 mm 0.00 in0.0 mm 0.00 in0.0 mm
05:50 AM 29.0°F-1.7°C 25.3°F-3.7°C 86% Calm Calm -- 30.21 in1023.0 mb 0.00 in0.0 mm 0.00 in0.0 mm 0.00 in0.0 mm
05:55 AM 29.0°F-1.7°C 25.3°F-3.7°C 86% Calm Calm -- 30.21 in1023.0 mb 0.00 in0.0 mm 0.00 in0.0 mm 0.00 in0.0 mm
06:00 AM 28.9°F-1.7°C 25.3°F-3.7°C 86% Calm Calm -- 30.21 in1023.0 mb 0.00 in0.0 mm 0.00 in0.0 mm 0.00 in0.0 mm
06:05 AM 28.9°F-1.7°C 25.3°F-3.7°C 86% Calm Calm -- 30.21 in1023.0 mb 0.00 in0.0 mm 0.00 in0.0 mm 0.00 in0.0 mm
06:10 AM 28.9°F-1.7°C 25.3°F-3.7°C 86% Calm Calm -- 30.20 in1022.7 mb 0.00 in0.0 mm 0.00 in0.0 mm 0.00 in0.0 mm
06:15 AM 28.9°F-1.7°C 25.3°F-3.7°C 86% Calm Calm -- 30.20 in1022.7 mb 0.00 in0.0 mm 0.00 in0.0 mm 0.00 in0.0 mm
06:20 AM 28.8°F-1.8°C 25.2°F-3.8°C 86% Calm Calm -- 30.21 in1023.0 mb 0.00 in0.0 mm 0.00 in0.0 mm 0.00 in0.0 mm
06:25 AM 28.7°F-1.8°C 25.2°F-3.8°C 86% Calm Calm -- 30.21 in1023.0 mb 0.00 in0.0 mm 0.00 in0.0 mm 0.00 in0.0 mm
06:30 AM 28.7°F-1.8°C 25.2°F-3.8°C 86% Calm Calm -- 30.21 in1023.0 mb 0.00 in0.0 mm 0.00 in0.0 mm 0.00 in0.0 mm
06:35 AM 28.6°F-1.9°C 25.0°F-3.9°C 86% Calm Calm -- 30.21 in1023.0 mb 0.00 in0.0 mm 0.00 in0.0 mm 0.00 in0.0 mm
06:40 AM 28.6°F-1.9°C 25.0°F-3.9°C 86% Calm Calm -- 30.21 in1023.0 mb 0.00 in0.0 mm 0.00 in0.0 mm 0.00 in0.0 mm
06:45 AM 28.6°F-1.9°C 25.0°F-3.9°C 86% Calm Calm -- 30.21 in1023.0 mb 0.00 in0.0 mm 0.00 in0.0 mm 0.00 in0.0 mm
06:50 AM 28.5°F-1.9°C 25.0°F-3.9°C 86% Calm Calm -- 30.20 in1022.7 mb 0.00 in0.0 mm 0.00 in0.0 mm 0.00 in0.0 mm
06:55 AM 28.5°F-1.9°C 25.0°F-3.9°C 86% Calm Calm -- 30.21 in1023.0 mb 0.00 in0.0 mm 0.00 in0.0 mm 0.00 in0.0 mm
07:00 AM 28.5°F-1.9°C 25.0°F-3.9°C 86% Calm Calm -- 30.21 in1023.0 mb 0.00 in0.0 mm 0.00 in0.0 mm 0.00 in0.0 mm
07:05 AM 28.4°F-2.0°C 25.0°F-3.9°C 87% Calm Calm -- 30.21 in1023.0 mb 0.00 in0.0 mm 0.00 in0.0 mm 0.00 in0.0 mm
07:10 AM 28.4°F-2.0°C 24.8°F-4.0°C 86% Calm Calm -- 30.22 in1023.4 mb 0.00 in0.0 mm 0.00 in0.0 mm 0.00 in0.0 mm
07:15 AM 28.3°F-2.1°C 24.6°F-4.1°C 86% Calm Calm -- 30.22 in1023.4 mb 0.00 in0.0 mm 0.00 in0.0 mm 0.00 in0.0 mm
07:20 AM 28.3°F-2.1°C 24.6°F-4.1°C 86% Calm Calm -- 30.22 in1023.4 mb 0.00 in0.0 mm 0.00 in0.0 mm 0.00 in0.0 mm
07:25 AM 28.2°F-2.1°C 24.6°F-4.1°C 86% Calm Calm -- 30.22 in1023.4 mb 0.00 in0.0 mm 0.00 in0.0 mm 0.00 in0.0 mm
07:30 AM 28.1°F-2.2°C 24.4°F-4.2°C 86% Calm Calm -- 30.21 in1023.0 mb 0.00 in0.0 mm 0.00 in0.0 mm 0.00 in0.0 mm
07:35 AM 28.0°F-2.2°C 24.4°F-4.2°C 86% Calm Calm -- 30.21 in1023.0 mb 0.00 in0.0 mm 0.00 in0.0 mm 0.00 in0.0 mm
07:40 AM 27.9°F-2.3°C 23.9°F-4.5°C 85% Calm Calm -- 30.21 in1023.0 mb 0.00 in0.0 mm 0.00 in0.0 mm 0.00 in0.0 mm
07:45 AM 27.8°F-2.3°C 23.9°F-4.5°C 85% Calm Calm -- 30.21 in1023.0 mb 0.00 in0.0 mm 0.00 in0.0 mm 0.00 in0.0 mm
07:50 AM 27.7°F-2.4°C 23.7°F-4.6°C 85% Calm Calm -- 30.20 in1022.7 mb 0.00 in0.0 mm 0.00 in0.0 mm 0.00 in0.0 mm
07:55 AM 27.6°F-2.4°C 23.7°F-4.6°C 85% Calm Calm -- 30.20 in1022.7 mb 0.00 in0.0 mm 0.00 in0.0 mm 0.00 in0.0 mm
08:00 AM 27.4°F-2.6°C 23.4°F-4.8°C 85% Calm Calm -- 30.21 in1023.0 mb 0.00 in0.0 mm 0.00 in0.0 mm 0.00 in0.0 mm
08:05 AM 27.3°F-2.6°C 23.4°F-4.8°C 85% Calm Calm -- 30.22 in1023.4 mb 0.00 in0.0 mm 0.00 in0.0 mm 0.00 in0.0 mm
08:10 AM 27.2°F-2.7°C 23.2°F-4.9°C 85% Calm Calm -- 30.22 in1023.4 mb 0.00 in0.0 mm 0.00 in0.0 mm 0.00 in0.0 mm
08:15 AM 27.1°F-2.7°C 23.2°F-4.9°C 85% Calm Calm -- 30.22 in1023.4 mb 0.00 in0.0 mm 0.00 in0.0 mm 0.00 in0.0 mm
08:20 AM 26.9°F-2.8°C 22.8°F-5.1°C 84% Calm Calm -- 30.23 in1023.7 mb 0.00 in0.0 mm 0.00 in0.0 mm 0.00 in0.0 mm
08:25 AM 26.8°F-2.9°C 22.3°F-5.4°C 83% Calm Calm -- 30.22 in1023.4 mb 0.00 in0.0 mm 0.00 in0.0 mm 0.00 in0.0 mm
08:30 AM 26.8°F-2.9°C 22.3°F-5.4°C 83% Calm Calm -- 30.23 in1023.7 mb 0.00 in0.0 mm 0.00 in0.0 mm 0.00 in0.0 mm
08:35 AM 26.7°F-2.9°C 22.3°F-5.4°C 83% Calm Calm -- 30.23 in1023.7 mb 0.00 in0.0 mm 0.00 in0.0 mm 0.00 in0.0 mm
08:40 AM 26.6°F-3.0°C 21.9°F-5.6°C 82% Calm Calm 1.0 mph1.6 kmh 30.23 in1023.7 mb 0.00 in0.0 mm 0.00 in0.0 mm 0.00 in0.0 mm
08:45 AM 26.6°F-3.0°C 21.9°F-5.6°C 82% Calm Calm -- 30.23 in1023.7 mb 0.00 in0.0 mm 0.00 in0.0 mm 0.00 in0.0 mm
08:50 AM 26.7°F-2.9°C 22.1°F-5.5°C 82% Calm Calm -- 30.23 in1023.7 mb 0.00 in0.0 mm 0.00 in0.0 mm 0.00 in0.0 mm
08:55 AM 26.8°F-2.9°C 22.1°F-5.5°C 82% Calm Calm -- 30.22 in1023.4 mb 0.00 in0.0 mm 0.00 in0.0 mm 0.00 in0.0 mm
09:00 AM 26.8°F-2.9°C 21.7°F-5.7°C 81% Calm Calm -- 30.24 in1024.0 mb 0.00 in0.0 mm 0.00 in0.0 mm 0.00 in0.0 mm
09:05 AM 26.8°F-2.9°C 21.4°F-5.9°C 80% Calm Calm 2.0 mph3.2 kmh 30.25 in1024.4 mb 0.00 in0.0 mm 0.00 in0.0 mm 0.00 in0.0 mm
09:10 AM 27.1°F-2.7°C 21.7°F-5.7°C 80% Calm Calm -- 30.24 in1024.0 mb 0.00 in0.0 mm 0.00 in0.0 mm 0.00 in0.0 mm
09:15 AM 27.2°F-2.7°C 21.6°F-5.8°C 79% Calm Calm -- 30.24 in1024.0 mb 0.00 in0.0 mm 0.00 in0.0 mm 0.00 in0.0 mm
09:20 AM 27.1°F-2.7°C 21.2°F-6.0°C 78% Calm Calm -- 30.24 in1024.0 mb 0.00 in0.0 mm 0.00 in0.0 mm 0.00 in0.0 mm
09:25 AM 27.2°F-2.7°C 21.2°F-6.0°C 78% Calm Calm -- 30.25 in1024.4 mb 0.00 in0.0 mm 0.00 in0.0 mm 0.00 in0.0 mm
09:30 AM 27.2°F-2.7°C 21.2°F-6.0°C 78% Calm Calm -- 30.26 in1024.7 mb 0.00 in0.0 mm 0.00 in0.0 mm 0.00 in0.0 mm
09:35 AM 27.3°F-2.6°C 21.4°F-5.9°C 78% Calm Calm -- 30.26 in1024.7 mb 0.00 in0.0 mm 0.00 in0.0 mm 0.00 in0.0 mm
09:40 AM 27.2°F-2.7°C 20.8°F-6.2°C 77% Calm Calm -- 30.27 in1025.1 mb 0.00 in0.0 mm 0.00 in0.0 mm 0.00 in0.0 mm
09:45 AM 27.2°F-2.7°C 20.8°F-6.2°C 77% Calm Calm -- 30.27 in1025.1 mb 0.00 in0.0 mm 0.00 in0.0 mm 0.00 in0.0 mm
09:50 AM 27.4°F-2.6°C 21.0°F-6.1°C 77% Calm Calm -- 30.26 in1024.7 mb 0.00 in0.0 mm 0.00 in0.0 mm 0.00 in0.0 mm
09:55 AM 27.6°F-2.4°C 21.7°F-5.7°C 78% Calm Calm 5.0 mph8.0 kmh 30.27 in1025.1 mb 0.00 in0.0 mm 0.00 in0.0 mm 0.00 in0.0 mm
10:00 AM 27.7°F-2.4°C 21.7°F-5.7°C 78% Calm Calm -- 30.27 in1025.1 mb 0.00 in0.0 mm 0.00 in0.0 mm 0.00 in0.0 mm
10:05 AM 27.4°F-2.6°C 21.4°F-5.9°C 78% Calm Calm -- 30.26 in1024.7 mb 0.00 in0.0 mm 0.00 in0.0 mm 0.00 in0.0 mm
10:10 AM 27.5°F-2.5°C 21.9°F-5.6°C 79% Calm Calm -- 30.26 in1024.7 mb 0.00 in0.0 mm 0.00 in0.0 mm 0.00 in0.0 mm
10:15 AM 28.1°F-2.2°C 21.7°F-5.7°C 77% Calm Calm -- 30.26 in1024.7 mb 0.00 in0.0 mm 0.00 in0.0 mm 0.00 in0.0 mm
10:20 AM 28.4°F-2.0°C 22.5°F-5.3°C 78% Calm Calm -- 30.26 in1024.7 mb 0.00 in0.0 mm 0.00 in0.0 mm 0.00 in0.0 mm
10:25 AM 28.2°F-2.1°C 21.6°F-5.8°C 76% Calm Calm -- 30.26 in1024.7 mb 0.00 in0.0 mm 0.00 in0.0 mm 0.00 in0.0 mm
10:30 AM 28.4°F-2.0°C 22.1°F-5.5°C 77% Calm Calm -- 30.26 in1024.7 mb 0.00 in0.0 mm 0.00 in0.0 mm 0.00 in0.0 mm
10:35 AM 28.7°F-1.8°C 22.5°F-5.3°C 77% Calm Calm -- 30.27 in1025.1 mb 0.00 in0.0 mm 0.00 in0.0 mm 0.00 in0.0 mm
10:40 AM 28.8°F-1.8°C 22.1°F-5.5°C 76% Calm Calm -- 30.27 in1025.1 mb 0.00 in0.0 mm 0.00 in0.0 mm 0.00 in0.0 mm
10:45 AM 28.7°F-1.8°C 21.9°F-5.6°C 75% Calm Calm 2.0 mph3.2 kmh 30.28 in1025.4 mb 0.00 in0.0 mm 0.00 in0.0 mm 0.00 in0.0 mm
10:50 AM 28.6°F-1.9°C 21.4°F-5.9°C 74% Calm Calm -- 30.28 in1025.4 mb 0.00 in0.0 mm 0.00 in0.0 mm 0.00 in0.0 mm
10:55 AM 28.5°F-1.9°C 21.7°F-5.7°C 75% Calm Calm -- 30.29 in1025.7 mb 0.00 in0.0 mm 0.00 in0.0 mm 0.00 in0.0 mm
11:00 AM 28.5°F-1.9°C 21.7°F-5.7°C 75% Calm Calm -- 30.29 in1025.7 mb 0.00 in0.0 mm 0.00 in0.0 mm 0.00 in0.0 mm
11:05 AM 28.5°F-1.9°C 21.7°F-5.7°C 75% Calm Calm -- 30.30 in1026.1 mb 0.00 in0.0 mm 0.00 in0.0 mm 0.00 in0.0 mm
11:10 AM 28.8°F-1.8°C 21.9°F-5.6°C 75% Calm Calm 2.0 mph3.2 kmh 30.30 in1026.1 mb 0.00 in0.0 mm 0.00 in0.0 mm 0.00 in0.0 mm
11:15 AM 28.7°F-1.8°C 21.6°F-5.8°C 74% Calm Calm -- 30.30 in1026.1 mb 0.00 in0.0 mm 0.00 in0.0 mm 0.00 in0.0 mm
11:20 AM 28.6°F-1.9°C 21.7°F-5.7°C 75% Calm Calm -- 30.29 in1025.7 mb 0.00 in0.0 mm 0.00 in0.0 mm 0.00 in0.0 mm
11:25 AM 28.5°F-1.9°C 21.7°F-5.7°C 75% Calm Calm -- 30.29 in1025.7 mb 0.00 in0.0 mm 0.00 in0.0 mm 0.00 in0.0 mm
11:30 AM 28.3°F-2.1°C 21.4°F-5.9°C 75% Calm Calm -- 30.29 in1025.7 mb 0.00 in0.0 mm 0.00 in0.0 mm 0.00 in0.0 mm
11:35 AM 28.1°F-2.2°C 20.8°F-6.2°C 74% Calm Calm 3.0 mph4.8 kmh 30.29 in1025.7 mb 0.00 in0.0 mm 0.00 in0.0 mm 0.00 in0.0 mm
11:40 AM 27.9°F-2.3°C 21.0°F-6.1°C 75% Calm Calm -- 30.29 in1025.7 mb 0.00 in0.0 mm 0.00 in0.0 mm 0.00 in0.0 mm
11:45 AM 27.9°F-2.3°C 21.0°F-6.1°C 75% Calm Calm -- 30.29 in1025.7 mb 0.00 in0.0 mm 0.00 in0.0 mm 0.00 in0.0 mm
11:50 AM 27.9°F-2.3°C 21.0°F-6.1°C 75% Calm Calm -- 30.29 in1025.7 mb 0.00 in0.0 mm 0.00 in0.0 mm 0.00 in0.0 mm
11:55 AM 27.9°F-2.3°C 20.7°F-6.3°C 74% Calm Calm -- 30.30 in1026.1 mb 0.00 in0.0 mm 0.00 in0.0 mm 0.00 in0.0 mm
12:00 PM 28.0°F-2.2°C 21.2°F-6.0°C 75% 1.0 mph NNE1.6 kmh NNE 2.0 mph3.2 kmh 30.30 in1026.1 mb 0.00 in0.0 mm 0.00 in0.0 mm 0.00 in0.0 mm
12:05 PM 28.0°F-2.2°C 20.8°F-6.2°C 74% Calm Calm -- 30.29 in1025.7 mb 0.00 in0.0 mm 0.00 in0.0 mm 0.00 in0.0 mm
12:10 PM 28.0°F-2.2°C 20.8°F-6.2°C 74% Calm Calm -- 30.28 in1025.4 mb 0.00 in0.0 mm 0.00 in0.0 mm 0.00 in0.0 mm
12:15 PM 27.8°F-2.3°C 20.7°F-6.3°C 74% Calm Calm -- 30.28 in1025.4 mb 0.00 in0.0 mm 0.00 in0.0 mm 0.00 in0.0 mm
12:20 PM 28.2°F-2.1°C 21.6°F-5.8°C 76% Calm Calm -- 30.27 in1025.1 mb 0.00 in0.0 mm 0.00 in0.0 mm 0.00 in0.0 mm
12:25 PM 28.7°F-1.8°C 21.2°F-6.0°C 73% Calm Calm -- 30.27 in1025.1 mb 0.00 in0.0 mm 0.00 in0.0 mm 0.00 in0.0 mm
12:30 PM 28.7°F-1.8°C 21.2°F-6.0°C 73% Calm Calm -- 30.28 in1025.4 mb 0.00 in0.0 mm 0.00 in0.0 mm 0.00 in0.0 mm
12:35 PM 28.5°F-1.9°C 21.0°F-6.1°C 73% Calm Calm -- 30.28 in1025.4 mb 0.00 in0.0 mm 0.00 in0.0 mm 0.00 in0.0 mm
12:40 PM 28.4°F-2.0°C 20.8°F-6.2°C 73% Calm Calm -- 30.28 in1025.4 mb 0.00 in0.0 mm 0.00 in0.0 mm 0.00 in0.0 mm
12:45 PM 28.4°F-2.0°C 20.5°F-6.4°C 72% Calm Calm -- 30.28 in1025.4 mb 0.00 in0.0 mm 0.00 in0.0 mm 0.00 in0.0 mm
12:50 PM 28.5°F-1.9°C 21.0°F-6.1°C 73% Calm Calm 1.0 mph1.6 kmh 30.27 in1025.1 mb 0.00 in0.0 mm 0.00 in0.0 mm 0.00 in0.0 mm
12:55 PM 28.8°F-1.8°C 21.2°F-6.0°C 73% Calm Calm -- 30.28 in1025.4 mb 0.00 in0.0 mm 0.00 in0.0 mm 0.00 in0.0 mm
01:00 PM 28.5°F-1.9°C 20.7°F-6.3°C 72% Calm Calm -- 30.27 in1025.1 mb 0.00 in0.0 mm 0.00 in0.0 mm 0.00 in0.0 mm
01:05 PM 28.7°F-1.8°C 21.6°F-5.8°C 74% Calm Calm -- 30.27 in1025.1 mb 0.00 in0.0 mm 0.00 in0.0 mm 0.00 in0.0 mm
01:10 PM 29.2°F-1.6°C 21.2°F-6.0°C 72% Calm Calm -- 30.27 in1025.1 mb 0.00 in0.0 mm 0.00 in0.0 mm 0.00 in0.0 mm
01:15 PM 29.2°F-1.6°C 21.2°F-6.0°C 72% Calm Calm -- 30.27 in1025.1 mb 0.00 in0.0 mm 0.00 in0.0 mm 0.00 in0.0 mm
01:20 PM 29.0°F-1.7°C 21.0°F-6.1°C 72% Calm Calm -- 30.27 in1025.1 mb 0.00 in0.0 mm 0.00 in0.0 mm 0.00 in0.0 mm
01:25 PM 29.1°F-1.6°C 20.8°F-6.2°C 71% Calm Calm -- 30.27 in1025.1 mb 0.00 in0.0 mm 0.00 in0.0 mm 0.00 in0.0 mm
01:30 PM 29.3°F-1.5°C 20.7°F-6.3°C 70% Calm Calm -- 30.27 in1025.1 mb 0.00 in0.0 mm 0.00 in0.0 mm 0.00 in0.0 mm
01:35 PM 29.8°F-1.2°C 21.2°F-6.0°C 70% Calm Calm -- 30.27 in1025.1 mb 0.00 in0.0 mm 0.00 in0.0 mm 0.00 in0.0 mm
01:40 PM 29.5°F-1.4°C 20.8°F-6.2°C 70% Calm Calm 1.0 mph1.6 kmh 30.26 in1024.7 mb 0.00 in0.0 mm 0.00 in0.0 mm 0.00 in0.0 mm
01:45 PM 29.5°F-1.4°C 20.7°F-6.3°C 69% Calm Calm -- 30.26 in1024.7 mb 0.00 in0.0 mm 0.00 in0.0 mm 0.00 in0.0 mm
01:50 PM 30.3°F-0.9°C 21.7°F-5.7°C 70% Calm Calm -- 30.25 in1024.4 mb 0.00 in0.0 mm 0.00 in0.0 mm 0.00 in0.0 mm
01:55 PM 30.1°F-1.1°C 21.4°F-5.9°C 70% Calm Calm -- 30.25 in1024.4 mb 0.00 in0.0 mm 0.00 in0.0 mm 0.00 in0.0 mm
02:00 PM 29.7°F-1.3°C 20.8°F-6.2°C 69% Calm Calm -- 30.25 in1024.4 mb 0.00 in0.0 mm 0.00 in0.0 mm 0.00 in0.0 mm
02:05 PM 30.0°F-1.1°C 20.8°F-6.2°C 68% Calm Calm 1.0 mph1.6 kmh 30.25 in1024.4 mb 0.00 in0.0 mm 0.00 in0.0 mm 0.00 in0.0 mm
02:10 PM 29.8°F-1.2°C 20.8°F-6.2°C 69% Calm Calm -- 30.25 in1024.4 mb 0.00 in0.0 mm 0.00 in0.0 mm 0.00 in0.0 mm
02:15 PM 30.1°F-1.1°C 21.4°F-5.9°C 70% Calm Calm -- 30.25 in1024.4 mb 0.00 in0.0 mm 0.00 in0.0 mm 0.00 in0.0 mm
02:20 PM 30.1°F-1.1°C 21.4°F-5.9°C 70% Calm Calm -- 30.26 in1024.7 mb 0.00 in0.0 mm 0.00 in0.0 mm 0.00 in0.0 mm
02:25 PM 30.6°F-0.8°C 21.6°F-5.8°C 69% Calm Calm -- 30.25 in1024.4 mb 0.00 in0.0 mm 0.00 in0.0 mm 0.00 in0.0 mm
02:30 PM 30.3°F-0.9°C 21.4°F-5.9°C 69% Calm Calm -- 30.26 in1024.7 mb 0.00 in0.0 mm 0.00 in0.0 mm 0.00 in0.0 mm
02:35 PM 30.3°F-0.9°C 21.4°F-5.9°C 69% Calm Calm -- 30.25 in1024.4 mb 0.00 in0.0 mm 0.00 in0.0 mm 0.00 in0.0 mm
02:40 PM 30.3°F-0.9°C 20.8°F-6.2°C 67% Calm Calm -- 30.25 in1024.4 mb 0.00 in0.0 mm 0.00 in0.0 mm 0.00 in0.0 mm
02:45 PM 30.2°F-1.0°C 20.7°F-6.3°C 67% Calm Calm -- 30.25 in1024.4 mb 0.00 in0.0 mm 0.00 in0.0 mm 0.00 in0.0 mm
02:50 PM 30.1°F-1.1°C 21.0°F-6.1°C 69% Calm Calm -- 30.25 in1024.4 mb 0.00 in0.0 mm 0.00 in0.0 mm 0.00 in0.0 mm
02:55 PM 30.3°F-0.9°C 21.4°F-5.9°C 69% Calm Calm -- 30.25 in1024.4 mb 0.00 in0.0 mm 0.00 in0.0 mm 0.00 in0.0 mm
03:00 PM 30.2°F-1.0°C 21.2°F-6.0°C 69% Calm Calm -- 30.25 in1024.4 mb 0.00 in0.0 mm 0.00 in0.0 mm 0.00 in0.0 mm
03:05 PM 30.3°F-0.9°C 21.7°F-5.7°C 70% Calm Calm -- 30.26 in1024.7 mb 0.00 in0.0 mm 0.00 in0.0 mm 0.00 in0.0 mm
03:10 PM 30.3°F-0.9°C 21.0°F-6.1°C 68% Calm Calm -- 30.25 in1024.4 mb 0.00 in0.0 mm 0.00 in0.0 mm 0.00 in0.0 mm
03:15 PM 30.3°F-0.9°C 21.4°F-5.9°C 69% Calm Calm -- 30.25 in1024.4 mb 0.00 in0.0 mm 0.00 in0.0 mm 0.00 in0.0 mm
03:20 PM 30.3°F-0.9°C 21.4°F-5.9°C 69% Calm Calm -- 30.24 in1024.0 mb 0.00 in0.0 mm 0.00 in0.0 mm 0.00 in0.0 mm
03:25 PM 30.2°F-1.0°C 20.7°F-6.3°C 67% Calm Calm -- 30.24 in1024.0 mb 0.00 in0.0 mm 0.00 in0.0 mm 0.00 in0.0 mm
03:30 PM 30.1°F-1.1°C 20.8°F-6.2°C 68% Calm Calm -- 30.24 in1024.0 mb 0.00 in0.0 mm 0.00 in0.0 mm 0.00 in0.0 mm
03:35 PM 30.6°F-0.8°C 21.6°F-5.8°C 69% Calm Calm -- 30.24 in1024.0 mb 0.00 in0.0 mm 0.00 in0.0 mm 0.00 in0.0 mm
03:40 PM 31.2°F-0.4°C 21.6°F-5.8°C 67% Calm Calm -- 30.24 in1024.0 mb 0.00 in0.0 mm 0.00 in0.0 mm 0.00 in0.0 mm
03:45 PM 30.8°F-0.7°C 20.7°F-6.3°C 66% Calm Calm -- 30.24 in1024.0 mb 0.00 in0.0 mm 0.00 in0.0 mm 0.00 in0.0 mm
03:50 PM 31.4°F-0.3°C 21.4°F-5.9°C 66% Calm Calm -- 30.24 in1024.0 mb 0.00 in0.0 mm 0.00 in0.0 mm 0.00 in0.0 mm
03:55 PM 30.9°F-0.6°C 21.2°F-6.0°C 67% Calm Calm -- 30.24 in1024.0 mb 0.00 in0.0 mm 0.00 in0.0 mm 0.00 in0.0 mm
04:00 PM 30.7°F-0.7°C 21.0°F-6.1°C 67% Calm Calm -- 30.23 in1023.7 mb 0.00 in0.0 mm 0.00 in0.0 mm 0.00 in0.0 mm
04:05 PM 30.8°F-0.7°C 21.0°F-6.1°C 67% Calm Calm -- 30.23 in1023.7 mb 0.00 in0.0 mm 0.00 in0.0 mm 0.00 in0.0 mm
04:10 PM 30.5°F-0.8°C 20.8°F-6.2°C 67% Calm Calm -- 30.23 in1023.7 mb 0.00 in0.0 mm 0.00 in0.0 mm 0.00 in0.0 mm
04:15 PM 30.5°F-0.8°C 21.2°F-6.0°C 68% Calm Calm -- 30.23 in1023.7 mb 0.00 in0.0 mm 0.00 in0.0 mm 0.00 in0.0 mm
04:20 PM 30.6°F-0.8°C 21.2°F-6.0°C 68% Calm Calm -- 30.23 in1023.7 mb 0.00 in0.0 mm 0.00 in0.0 mm 0.00 in0.0 mm
04:25 PM 30.5°F-0.8°C 21.2°F-6.0°C 68% Calm Calm -- 30.23 in1023.7 mb 0.00 in0.0 mm 0.00 in0.0 mm 0.00 in0.0 mm
04:30 PM 30.6°F-0.8°C 21.2°F-6.0°C 68% Calm Calm -- 30.23 in1023.7 mb 0.00 in0.0 mm 0.00 in0.0 mm 0.00 in0.0 mm
04:35 PM 30.4°F-0.9°C 21.0°F-6.1°C 68% Calm Calm -- 30.23 in1023.7 mb 0.00 in0.0 mm 0.00 in0.0 mm 0.00 in0.0 mm
04:40 PM 30.2°F-1.0°C 21.0°F-6.1°C 68% Calm Calm -- 30.24 in1024.0 mb 0.00 in0.0 mm 0.00 in0.0 mm 0.00 in0.0 mm
04:45 PM 30.3°F-0.9°C 21.4°F-5.9°C 69% Calm Calm -- 30.24 in1024.0 mb 0.00 in0.0 mm 0.00 in0.0 mm 0.00 in0.0 mm
04:50 PM 30.3°F-0.9°C 21.0°F-6.1°C 68% Calm Calm -- 30.24 in1024.0 mb 0.00 in0.0 mm 0.00 in0.0 mm 0.00 in0.0 mm
04:55 PM 30.3°F-0.9°C 21.4°F-5.9°C 69% Calm Calm -- 30.24 in1024.0 mb 0.00 in0.0 mm 0.00 in0.0 mm 0.00 in0.0 mm
05:00 PM 30.3°F-0.9°C 21.0°F-6.1°C 68% Calm Calm 2.0 mph3.2 kmh 30.24 in1024.0 mb 0.00 in0.0 mm 0.00 in0.0 mm 0.00 in0.0 mm
05:05 PM 30.4°F-0.9°C 21.0°F-6.1°C 68% Calm Calm -- 30.24 in1024.0 mb 0.00 in0.0 mm 0.00 in0.0 mm 0.00 in0.0 mm
05:10 PM 30.6°F-0.8°C 21.2°F-6.0°C 68% Calm Calm -- 30.23 in1023.7 mb 0.00 in0.0 mm 0.00 in0.0 mm 0.00 in0.0 mm
05:15 PM 30.8°F-0.7°C 21.0°F-6.1°C 67% Calm Calm -- 30.23 in1023.7 mb 0.00 in0.0 mm 0.00 in0.0 mm 0.00 in0.0 mm
05:20 PM 30.8°F-0.7°C 21.0°F-6.1°C 67% Calm Calm -- 30.23 in1023.7 mb 0.00 in0.0 mm 0.00 in0.0 mm 0.00 in0.0 mm
05:25 PM 30.6°F-0.8°C 20.8°F-6.2°C 67% Calm Calm -- 30.22 in1023.4 mb 0.00 in0.0 mm 0.00 in0.0 mm 0.00 in0.0 mm
05:30 PM 30.4°F-0.9°C 21.0°F-6.1°C 68% Calm Calm -- 30.23 in1023.7 mb 0.00 in0.0 mm 0.00 in0.0 mm 0.00 in0.0 mm
05:35 PM 30.2°F-1.0°C 21.0°F-6.1°C 68% Calm Calm -- 30.23 in1023.7 mb 0.00 in0.0 mm 0.00 in0.0 mm 0.00 in0.0 mm
05:40 PM 30.0°F-1.1°C 21.0°F-6.1°C 69% Calm Calm -- 30.22 in1023.4 mb 0.00 in0.0 mm 0.00 in0.0 mm 0.00 in0.0 mm
05:45 PM 30.0°F-1.1°C 21.4°F-5.9°C 70% Calm Calm -- 30.23 in1023.7 mb 0.00 in0.0 mm 0.00 in0.0 mm 0.00 in0.0 mm
05:50 PM 30.0°F-1.1°C 21.4°F-5.9°C 70% Calm Calm -- 30.22 in1023.4 mb 0.00 in0.0 mm 0.00 in0.0 mm 0.00 in0.0 mm
05:55 PM 29.8°F-1.2°C 20.8°F-6.2°C 69% Calm Calm -- 30.22 in1023.4 mb 0.00 in0.0 mm 0.00 in0.0 mm 0.00 in0.0 mm
06:00 PM 29.7°F-1.3°C 21.0°F-6.1°C 70% Calm Calm -- 30.23 in1023.7 mb 0.00 in0.0 mm 0.00 in0.0 mm 0.00 in0.0 mm
06:05 PM 29.7°F-1.3°C 21.0°F-6.1°C 70% Calm Calm -- 30.23 in1023.7 mb 0.00 in0.0 mm 0.00 in0.0 mm 0.00 in0.0 mm
06:10 PM 29.7°F-1.3°C 20.8°F-6.2°C 69% Calm Calm -- 30.23 in1023.7 mb 0.00 in0.0 mm 0.00 in0.0 mm 0.00 in0.0 mm
06:15 PM 29.6°F-1.3°C 21.0°F-6.1°C 70% Calm Calm -- 30.23 in1023.7 mb 0.00 in0.0 mm 0.00 in0.0 mm 0.00 in0.0 mm
06:20 PM 29.5°F-1.4°C 20.8°F-6.2°C 70% Calm Calm -- 30.23 in1023.7 mb 0.00 in0.0 mm 0.00 in0.0 mm 0.00 in0.0 mm
06:25 PM 29.4°F-1.4°C 20.8°F-6.2°C 70% Calm Calm -- 30.23 in1023.7 mb 0.00 in0.0 mm 0.00 in0.0 mm 0.00 in0.0 mm
06:30 PM 29.3°F-1.5°C 20.7°F-6.3°C 70% Calm Calm -- 30.23 in1023.7 mb 0.00 in0.0 mm 0.00 in0.0 mm 0.00 in0.0 mm
06:35 PM 29.2°F-1.6°C 20.8°F-6.2°C 71% Calm Calm -- 30.23 in1023.7 mb 0.00 in0.0 mm 0.00 in0.0 mm 0.00 in0.0 mm
06:40 PM 29.1°F-1.6°C 20.8°F-6.2°C 71% Calm Calm -- 30.23 in1023.7 mb 0.00 in0.0 mm 0.00 in0.0 mm 0.00 in0.0 mm
06:45 PM 29.0°F-1.7°C 20.7°F-6.3°C 71% Calm Calm -- 30.23 in1023.7 mb 0.00 in0.0 mm 0.00 in0.0 mm 0.00 in0.0 mm
06:50 PM 28.9°F-1.7°C 20.7°F-6.3°C 71% Calm Calm -- 30.23 in1023.7 mb 0.00 in0.0 mm 0.00 in0.0 mm 0.00 in0.0 mm
06:55 PM 28.9°F-1.7°C 21.0°F-6.1°C 72% Calm Calm -- 30.23 in1023.7 mb 0.00 in0.0 mm 0.00 in0.0 mm 0.00 in0.0 mm
07:00 PM 28.8°F-1.8°C 20.5°F-6.4°C 71% Calm Calm -- 30.23 in1023.7 mb 0.00 in0.0 mm 0.00 in0.0 mm 0.00 in0.0 mm
07:05 PM 28.7°F-1.8°C 20.8°F-6.2°C 72% Calm Calm 1.0 mph1.6 kmh 30.24 in1024.0 mb 0.00 in0.0 mm 0.00 in0.0 mm 0.00 in0.0 mm
07:10 PM 28.6°F-1.9°C 20.7°F-6.3°C 72% Calm Calm -- 30.24 in1024.0 mb 0.00 in0.0 mm 0.00 in0.0 mm 0.00 in0.0 mm
07:15 PM 28.5°F-1.9°C 20.7°F-6.3°C 72% Calm Calm -- 30.24 in1024.0 mb 0.00 in0.0 mm 0.00 in0.0 mm 0.00 in0.0 mm
07:20 PM 28.4°F-2.0°C 20.5°F-6.4°C 72% Calm Calm -- 30.24 in1024.0 mb 0.00 in0.0 mm 0.00 in0.0 mm 0.00 in0.0 mm
07:25 PM 28.3°F-2.1°C 20.3°F-6.5°C 72% Calm Calm -- 30.24 in1024.0 mb 0.00 in0.0 mm 0.00 in0.0 mm 0.00 in0.0 mm
07:30 PM 28.2°F-2.1°C 20.3°F-6.5°C 72% Calm Calm 2.0 mph3.2 kmh 30.24 in1024.0 mb 0.00 in0.0 mm 0.00 in0.0 mm 0.00 in0.0 mm
07:35 PM 28.1°F-2.2°C 20.5°F-6.4°C 73% Calm Calm -- 30.24 in1024.0 mb 0.00 in0.0 mm 0.00 in0.0 mm 0.00 in0.0 mm
07:40 PM 28.0°F-2.2°C 20.5°F-6.4°C 73% Calm Calm -- 30.25 in1024.4 mb 0.00 in0.0 mm 0.00 in0.0 mm 0.00 in0.0 mm
07:45 PM 27.9°F-2.3°C 20.3°F-6.5°C 73% 1.0 mph NNE1.6 kmh NNE -- 30.25 in1024.4 mb 0.00 in0.0 mm 0.00 in0.0 mm 0.00 in0.0 mm
07:50 PM 27.8°F-2.3°C 20.3°F-6.5°C 73% Calm Calm -- 30.25 in1024.4 mb 0.00 in0.0 mm 0.00 in0.0 mm 0.00 in0.0 mm
07:55 PM 27.7°F-2.4°C 20.1°F-6.6°C 73% 3.0 mph NNE4.8 kmh NNE 9.0 mph14.5 kmh 30.25 in1024.4 mb 0.00 in0.0 mm 0.00 in0.0 mm 0.00 in0.0 mm
08:00 PM 27.6°F-2.4°C 20.1°F-6.6°C 73% 4.0 mph NNE6.4 kmh NNE -- 30.25 in1024.4 mb 0.00 in0.0 mm 0.00 in0.0 mm 0.00 in0.0 mm
08:05 PM 27.5°F-2.5°C 19.9°F-6.7°C 73% 7.0 mph NNE11.3 kmh NNE -- 30.25 in1024.4 mb 0.00 in0.0 mm 0.00 in0.0 mm 0.00 in0.0 mm
08:10 PM 27.5°F-2.5°C 19.9°F-6.7°C 73% 4.0 mph NNE6.4 kmh NNE -- 30.25 in1024.4 mb 0.00 in0.0 mm 0.00 in0.0 mm 0.00 in0.0 mm
08:15 PM 27.4°F-2.6°C 20.1°F-6.6°C 74% 6.0 mph NNE9.7 kmh NNE -- 30.25 in1024.4 mb 0.00 in0.0 mm 0.00 in0.0 mm 0.00 in0.0 mm
08:20 PM 27.3°F-2.6°C 20.1°F-6.6°C 74% 5.0 mph NNE8.0 kmh NNE 11.0 mph17.7 kmh 30.25 in1024.4 mb 0.00 in0.0 mm 0.00 in0.0 mm 0.00 in0.0 mm
08:25 PM 27.2°F-2.7°C 19.6°F-6.9°C 73% 7.0 mph NNE11.3 kmh NNE -- 30.25 in1024.4 mb 0.00 in0.0 mm 0.00 in0.0 mm 0.00 in0.0 mm
08:30 PM 27.2°F-2.7°C 19.9°F-6.7°C 74% 5.0 mph NNE8.0 kmh NNE -- 30.25 in1024.4 mb 0.00 in0.0 mm 0.00 in0.0 mm 0.00 in0.0 mm
08:35 PM 27.1°F-2.7°C 19.6°F-6.9°C 73% 5.0 mph NNE8.0 kmh NNE -- 30.25 in1024.4 mb 0.00 in0.0 mm 0.00 in0.0 mm 0.00 in0.0 mm
08:40 PM 27.1°F-2.7°C 19.6°F-6.9°C 73% 3.0 mph N4.8 kmh N -- 30.25 in1024.4 mb 0.00 in0.0 mm 0.00 in0.0 mm 0.00 in0.0 mm
08:45 PM 27.0°F-2.8°C 19.8°F-6.8°C 74% 5.0 mph N8.0 kmh N 10.0 mph16.1 kmh 30.26 in1024.7 mb 0.00 in0.0 mm 0.00 in0.0 mm 0.00 in0.0 mm
08:50 PM 27.0°F-2.8°C 19.8°F-6.8°C 74% 8.0 mph NNE12.9 kmh NNE -- 30.25 in1024.4 mb 0.00 in0.0 mm 0.00 in0.0 mm 0.00 in0.0 mm
08:55 PM 27.0°F-2.8°C 19.4°F-7.0°C 73% 3.0 mph NNE4.8 kmh NNE -- 30.25 in1024.4 mb 0.00 in0.0 mm 0.00 in0.0 mm 0.00 in0.0 mm
09:00 PM 26.9°F-2.8°C 19.8°F-6.8°C 74% 6.0 mph NNE9.7 kmh NNE -- 30.25 in1024.4 mb 0.00 in0.0 mm 0.00 in0.0 mm 0.00 in0.0 mm
09:05 PM 26.8°F-2.9°C 19.2°F-7.1°C 73% 3.0 mph NNE4.8 kmh NNE -- 30.25 in1024.4 mb 0.00 in0.0 mm 0.00 in0.0 mm 0.00 in0.0 mm
09:10 PM 26.8°F-2.9°C 19.2°F-7.1°C 73% 4.0 mph NE6.4 kmh NE 12.0 mph19.3 kmh 30.25 in1024.4 mb 0.00 in0.0 mm 0.00 in0.0 mm 0.00 in0.0 mm
09:15 PM 26.7°F-2.9°C 19.2°F-7.1°C 73% 2.0 mph NE3.2 kmh NE -- 30.25 in1024.4 mb 0.00 in0.0 mm 0.00 in0.0 mm 0.00 in0.0 mm
09:20 PM 26.6°F-3.0°C 19.2°F-7.1°C 73% 2.0 mph NE3.2 kmh NE -- 30.25 in1024.4 mb 0.00 in0.0 mm 0.00 in0.0 mm 0.00 in0.0 mm
09:25 PM 26.5°F-3.1°C 19.0°F-7.2°C 73% 5.0 mph NE8.0 kmh NE -- 30.25 in1024.4 mb 0.00 in0.0 mm 0.00 in0.0 mm 0.00 in0.0 mm
09:30 PM 26.4°F-3.1°C 19.0°F-7.2°C 73% 4.0 mph NE6.4 kmh NE -- 30.25 in1024.4 mb 0.00 in0.0 mm 0.00 in0.0 mm 0.00 in0.0 mm
09:35 PM 26.4°F-3.1°C 19.0°F-7.2°C 73% 5.0 mph NE8.0 kmh NE 7.0 mph11.3 kmh 30.25 in1024.4 mb 0.00 in0.0 mm 0.00 in0.0 mm 0.00 in0.0 mm
09:40 PM 26.3°F-3.2°C 18.9°F-7.3°C 73% 4.0 mph NE6.4 kmh NE -- 30.25 in1024.4 mb 0.00 in0.0 mm 0.00 in0.0 mm 0.00 in0.0 mm
09:45 PM 26.2°F-3.2°C 18.9°F-7.3°C 73% 3.0 mph NE4.8 kmh NE -- 30.25 in1024.4 mb 0.00 in0.0 mm 0.00 in0.0 mm 0.00 in0.0 mm
09:50 PM 26.2°F-3.2°C 18.9°F-7.3°C 73% 2.0 mph NE3.2 kmh NE -- 30.25 in1024.4 mb 0.00 in0.0 mm 0.00 in0.0 mm 0.00 in0.0 mm
09:55 PM 26.2°F-3.2°C 18.9°F-7.3°C 73% 3.0 mph NE4.8 kmh NE -- 30.25 in1024.4 mb 0.00 in0.0 mm 0.00 in0.0 mm 0.00 in0.0 mm
10:00 PM 26.2°F-3.2°C 18.9°F-7.3°C 73% 1.0 mph NE1.6 kmh NE 6.0 mph9.7 kmh 30.25 in1024.4 mb 0.00 in0.0 mm 0.00 in0.0 mm 0.00 in0.0 mm
10:05 PM 26.2°F-3.2°C 18.9°F-7.3°C 73% 2.0 mph NE3.2 kmh NE -- 30.25 in1024.4 mb 0.00 in0.0 mm 0.00 in0.0 mm 0.00 in0.0 mm
10:10 PM 26.2°F-3.2°C 18.9°F-7.3°C 73% 2.0 mph NE3.2 kmh NE -- 30.25 in1024.4 mb 0.00 in0.0 mm 0.00 in0.0 mm 0.00 in0.0 mm
10:15 PM 26.2°F-3.2°C 18.9°F-7.3°C 73% 4.0 mph NE6.4 kmh NE -- 30.25 in1024.4 mb 0.00 in0.0 mm 0.00 in0.0 mm 0.00 in0.0 mm
10:20 PM 26.2°F-3.2°C 18.9°F-7.3°C 73% 2.0 mph NE3.2 kmh NE -- 30.26 in1024.7 mb 0.00 in0.0 mm 0.00 in0.0 mm 0.00 in0.0 mm
10:25 PM 26.2°F-3.2°C 18.9°F-7.3°C 73% 5.0 mph NE8.0 kmh NE 7.0 mph11.3 kmh 30.26 in1024.7 mb 0.00 in0.0 mm 0.00 in0.0 mm 0.00 in0.0 mm
10:30 PM 26.1°F-3.3°C 18.7°F-7.4°C 73% 4.0 mph NE6.4 kmh NE -- 30.27 in1025.1 mb 0.00 in0.0 mm 0.00 in0.0 mm 0.00 in0.0 mm
10:35 PM 26.0°F-3.3°C 18.7°F-7.4°C 73% 5.0 mph NE8.0 kmh NE -- 30.27 in1025.1 mb 0.00 in0.0 mm 0.00 in0.0 mm 0.00 in0.0 mm
10:40 PM 26.0°F-3.3°C 18.7°F-7.4°C 73% 1.0 mph NE1.6 kmh NE -- 30.27 in1025.1 mb 0.00 in0.0 mm 0.00 in0.0 mm 0.00 in0.0 mm
10:45 PM 25.9°F-3.4°C 18.5°F-7.5°C 73% 4.0 mph NE6.4 kmh NE -- 30.27 in1025.1 mb 0.00 in0.0 mm 0.00 in0.0 mm 0.00 in0.0 mm
10:50 PM 25.8°F-3.4°C 18.5°F-7.5°C 73% 2.0 mph NE3.2 kmh NE 5.0 mph8.0 kmh 30.26 in1024.7 mb 0.00 in0.0 mm 0.00 in0.0 mm 0.00 in0.0 mm
10:55 PM 25.8°F-3.4°C 18.5°F-7.5°C 73% 9.0 mph NNE14.5 kmh NNE -- 30.26 in1024.7 mb 0.00 in0.0 mm 0.00 in0.0 mm 0.00 in0.0 mm
11:00 PM 25.7°F-3.5°C 18.3°F-7.6°C 73% 9.0 mph NNE14.5 kmh NNE -- 30.27 in1025.1 mb 0.00 in0.0 mm 0.00 in0.0 mm 0.00 in0.0 mm
11:05 PM 25.7°F-3.5°C 18.3°F-7.6°C 73% 7.0 mph NNE11.3 kmh NNE -- 30.26 in1024.7 mb 0.00 in0.0 mm 0.00 in0.0 mm 0.00 in0.0 mm
11:10 PM 25.7°F-3.5°C 18.3°F-7.6°C 73% 4.0 mph NNE6.4 kmh NNE -- 30.27 in1025.1 mb 0.00 in0.0 mm 0.00 in0.0 mm 0.00 in0.0 mm
11:15 PM 25.6°F-3.6°C 18.1°F-7.7°C 73% 9.0 mph NNE14.5 kmh NNE 14.0 mph22.5 kmh 30.27 in1025.1 mb 0.00 in0.0 mm 0.00 in0.0 mm 0.00 in0.0 mm
11:20 PM 25.6°F-3.6°C 18.3°F-7.6°C 74% 10.0 mph NNE16.1 kmh NNE -- 30.27 in1025.1 mb 0.00 in0.0 mm 0.00 in0.0 mm 0.00 in0.0 mm
11:25 PM 25.5°F-3.6°C 18.3°F-7.6°C 74% 5.0 mph NE8.0 kmh NE -- 30.27 in1025.1 mb 0.00 in0.0 mm 0.00 in0.0 mm 0.00 in0.0 mm
11:30 PM 25.5°F-3.6°C 18.3°F-7.6°C 74% 9.0 mph NE14.5 kmh NE -- 30.26 in1024.7 mb 0.00 in0.0 mm 0.00 in0.0 mm 0.00 in0.0 mm
11:35 PM 25.4°F-3.7°C 18.3°F-7.6°C 74% 7.0 mph NNE11.3 kmh NNE -- 30.27 in1025.1 mb 0.00 in0.0 mm 0.00 in0.0 mm 0.00 in0.0 mm
11:40 PM 25.3°F-3.7°C 18.5°F-7.5°C 75% 7.0 mph NE11.3 kmh NE 11.0 mph17.7 kmh 30.26 in1024.7 mb 0.00 in0.0 mm 0.00 in0.0 mm 0.00 in0.0 mm
11:45 PM 25.2°F-3.8°C 18.3°F-7.6°C 75% 5.0 mph N8.0 kmh N -- 30.26 in1024.7 mb 0.00 in0.0 mm 0.00 in0.0 mm 0.00 in0.0 mm
11:50 PM 25.1°F-3.8°C 18.3°F-7.6°C 75% 9.0 mph NNE14.5 kmh NNE -- 30.26 in1024.7 mb 0.00 in0.0 mm 0.00 in0.0 mm 0.00 in0.0 mm
11:55 PM 25.0°F-3.9°C 18.5°F-7.5°C 76% 7.0 mph NE11.3 kmh NE -- 30.26 in1024.7 mb 0.00 in0.0 mm 0.00 in0.0 mm 0.00 in0.0 mm